Time,TemperatureF,DewpointF,PressureIn,WindDirection,WindDirectionDegrees,WindSpeedMPH,WindSpeedGustMPH,Humidity,HourlyPrecipIn,Conditions,Clouds,dailyrainin,SoftwareType,DateUTC
2013-05-09 00:02:00,51.0,45.0,29.95,SSW,209,3.0,-999.0,81,-99.99,,,0.00,weatherlink.com 1.10,2013-05-09 04:02:00,
2013-05-09 00:17:00,51.0,45.0,29.95,SW,218,1.0,-999.0,80,-99.99,,,0.00,weatherlink.com 1.10,2013-05-09 04:17:00,
2013-05-09 00:32:00,50.8,45.0,29.95,NW,306,0.0,-999.0,79,-99.99,,,0.00,weatherlink.com 1.10,2013-05-09 04:32:00,
2013-05-09 00:47:00,50.5,44.0,29.95,West,271,3.0,-999.0,78,-99.99,,,0.00,weatherlink.com 1.10,2013-05-09 04:47:00,
2013-05-09 01:02:00,50.4,44.0,29.95,WNW,290,2.0,-999.0,79,-99.99,,,0.00,weatherlink.com 1.10,2013-05-09 05:02:00,
2013-05-09 01:17:00,50.4,45.0,29.95,WSW,240,4.0,-999.0,81,-99.99,,,0.00,weatherlink.com 1.10,2013-05-09 05:17:00,
2013-05-09 01:32:00,50.1,45.0,29.94,SW,229,1.0,-999.0,82,-99.99,,,0.00,weatherlink.com 1.10,2013-05-09 05:32:00,
2013-05-09 01:47:00,50.1,45.0,29.94,NNW,329,0.0,-999.0,82,-99.99,,,0.00,weatherlink.com 1.10,2013-05-09 05:47:00,
2013-05-09 02:02:00,50.7,45.0,29.93,WNW,284,1.0,-999.0,80,-99.99,,,0.00,weatherlink.com 1.10,2013-05-09 06:02:00,
2013-05-09 02:17:00,50.5,45.0,29.92,NNW,344,3.0,-999.0,81,-99.99,,,0.00,weatherlink.com 1.10,2013-05-09 06:17:00,
2013-05-09 02:32:00,50.5,45.0,29.92,SW,235,3.0,-999.0,81,-99.99,,,0.00,weatherlink.com 1.10,2013-05-09 06:32:00,
2013-05-09 02:47:00,49.9,45.0,29.93,West,263,1.0,-999.0,83,-99.99,,,0.00,weatherlink.com 1.10,2013-05-09 06:47:00,
2013-05-09 03:02:00,50.2,45.0,29.92,WNW,290,0.0,-999.0,82,-99.99,,,0.00,weatherlink.com 1.10,2013-05-09 07:02:00,
2013-05-09 03:17:00,49.4,45.0,29.91,WNW,283,2.0,-999.0,84,-99.99,,,0.00,weatherlink.com 1.10,2013-05-09 07:17:00,
2013-05-09 03:32:00,48.8,45.0,29.92,NW,308,2.0,-999.0,86,-99.99,,,0.00,weatherlink.com 1.10,2013-05-09 07:32:00,
2013-05-09 03:47:00,48.9,45.0,29.91,NW,308,1.0,-999.0,85,-99.99,,,0.00,weatherlink.com 1.10,2013-05-09 07:47:00,
2013-05-09 04:02:00,49.2,45.0,29.92,NW,308,3.0,-999.0,85,-99.99,,,0.00,weatherlink.com 1.10,2013-05-09 08:02:00,
2013-05-09 04:17:00,49.6,45.0,29.93,West,281,3.0,-999.0,84,-99.99,,,0.00,weatherlink.com 1.10,2013-05-09 08:17:00,
2013-05-09 04:32:00,49.5,45.0,29.93,West,275,1.0,-999.0,84,-99.99,,,0.00,weatherlink.com 1.10,2013-05-09 08:32:00,
2013-05-09 04:47:00,49.6,45.0,29.94,WSW,238,3.0,-999.0,83,-99.99,,,0.00,weatherlink.com 1.10,2013-05-09 08:47:00,
2013-05-09 05:02:00,49.4,44.0,29.95,WNW,298,3.0,-999.0,83,-99.99,,,0.00,weatherlink.com 1.10,2013-05-09 09:02:00,
2013-05-09 05:17:00,49.1,44.0,29.96,West,271,3.0,-999.0,83,-99.99,,,0.00,weatherlink.com 1.10,2013-05-09 09:17:00,
2013-05-09 05:32:00,48.9,44.0,29.96,SSW,209,1.0,-999.0,83,-99.99,,,0.00,weatherlink.com 1.10,2013-05-09 09:32:00,
2013-05-09 05:47:00,49.4,44.0,29.96,WSW,256,3.0,-999.0,81,-99.99,,,0.00,weatherlink.com 1.10,2013-05-09 09:47:00,
2013-05-09 06:02:00,49.4,44.0,29.96,WSW,253,3.0,-999.0,81,-99.99,,,0.00,weatherlink.com 1.10,2013-05-09 10:02:00,
2013-05-09 06:17:00,49.5,44.0,29.95,WNW,297,3.0,-999.0,81,-99.99,,,0.00,weatherlink.com 1.10,2013-05-09 10:17:00,
2013-05-09 06:32:00,49.1,44.0,29.96,West,269,1.0,-999.0,82,-99.99,,,0.00,weatherlink.com 1.10,2013-05-09 10:32:00,
2013-05-09 06:47:00,49.5,44.0,29.97,ESE,106,2.0,-999.0,82,-99.99,,,0.00,weatherlink.com 1.10,2013-05-09 10:47:00,
2013-05-09 07:02:00,50.1,45.0,29.97,West,273,1.0,-999.0,82,-99.99,,,0.00,weatherlink.com 1.10,2013-05-09 11:02:00,
2013-05-09 07:17:00,50.7,45.0,29.99,SW,222,2.0,-999.0,81,-99.99,,,0.00,weatherlink.com 1.10,2013-05-09 11:17:00,
2013-05-09 07:32:00,51.6,46.0,29.98,WSW,238,4.0,-999.0,80,-99.99,,,0.00,weatherlink.com 1.10,2013-05-09 11:32:00,
2013-05-09 07:47:00,52.6,46.0,29.99,West,269,0.0,-999.0,79,-99.99,,,0.00,weatherlink.com 1.10,2013-05-09 11:47:00,
2013-05-09 08:02:00,53.9,47.0,29.98,SW,222,0.0,-999.0,77,-99.99,,,0.00,weatherlink.com 1.10,2013-05-09 12:02:00,
2013-05-09 08:17:00,55.7,48.0,29.98,East,88,0.0,-999.0,76,-99.99,,,0.00,weatherlink.com 1.10,2013-05-09 12:17:00,
2013-05-09 08:32:00,56.5,48.0,29.97,SW,222,0.0,-999.0,74,-99.99,,,0.00,weatherlink.com 1.10,2013-05-09 12:32:00,
2013-05-09 08:48:00,56.9,47.0,29.98,NW,306,10.0,-999.0,70,-99.99,,,0.00,weatherlink.com 1.10,2013-05-09 12:48:00,
2013-05-09 09:03:00,57.6,47.0,29.98,West,263,3.0,-999.0,68,-99.99,,,0.00,weatherlink.com 1.10,2013-05-09 13:03:00,
2013-05-09 09:18:00,58.7,49.0,29.98,WNW,290,0.0,-999.0,71,-99.99,,,0.00,weatherlink.com 1.10,2013-05-09 13:18:00,
2013-05-09 09:33:00,58.7,49.0,29.97,NNE,22,9.0,-999.0,69,-99.99,,,0.00,weatherlink.com 1.10,2013-05-09 13:33:00,
2013-05-09 09:48:00,57.2,48.0,30.00,NW,315,3.0,-999.0,72,-99.99,,,0.00,weatherlink.com 1.10,2013-05-09 13:48:00,
2013-05-09 10:03:00,57.6,48.0,29.99,NE,42,3.0,-999.0,71,-99.99,,,0.00,weatherlink.com 1.10,2013-05-09 14:03:00,
2013-05-09 10:18:00,58.6,48.0,29.99,NW,316,6.0,-999.0,68,-99.99,,,0.00,weatherlink.com 1.10,2013-05-09 14:18:00,
2013-05-09 10:33:00,59.2,47.0,29.98,West,263,5.0,-999.0,65,-99.99,,,0.00,weatherlink.com 1.10,2013-05-09 14:33:00,
2013-05-09 10:48:00,60.2,47.0,29.99,WSW,254,1.0,-999.0,63,-99.99,,,0.00,weatherlink.com 1.10,2013-05-09 14:48:00,
2013-05-09 11:03:00,59.8,47.0,29.99,WSW,238,4.0,-999.0,64,-99.99,,,0.00,weatherlink.com 1.10,2013-05-09 15:03:00,
2013-05-09 11:18:00,59.9,48.0,29.99,NW,317,0.0,-999.0,64,-99.99,,,0.00,weatherlink.com 1.10,2013-05-09 15:18:00,
2013-05-09 11:33:00,61.3,49.0,29.99,ENE,71,4.0,-999.0,65,-99.99,,,0.00,weatherlink.com 1.10,2013-05-09 15:33:00,
2013-05-09 11:48:00,62.1,50.0,29.99,WNW,293,5.0,-999.0,64,-99.99,,,0.00,weatherlink.com 1.10,2013-05-09 15:48:00,
2013-05-09 12:03:00,60.4,48.0,30.00,NNE,21,0.0,-999.0,64,-99.99,,,0.00,weatherlink.com 1.10,2013-05-09 16:03:00,
2013-05-09 12:18:00,58.9,47.0,30.01,ENE,57,2.0,-999.0,64,-99.99,,,0.00,weatherlink.com 1.10,2013-05-09 16:18:00,
2013-05-09 12:33:00,62.9,49.0,30.00,North,11,6.0,-999.0,60,-99.99,,,0.00,weatherlink.com 1.10,2013-05-09 16:33:00,
2013-05-09 12:48:00,61.6,48.0,29.99,NNE,32,0.0,-999.0,61,-99.99,,,0.00,weatherlink.com 1.10,2013-05-09 16:48:00,
2013-05-09 13:03:00,60.4,48.0,29.99,South,185,0.0,-999.0,63,-99.99,,,0.00,weatherlink.com 1.10,2013-05-09 17:03:00,
2013-05-09 13:18:00,60.4,46.0,30.00,WNW,302,0.0,-999.0,59,-99.99,,,0.00,weatherlink.com 1.10,2013-05-09 17:18:00,
2013-05-09 13:33:00,63.2,48.0,29.97,SE,128,0.0,-999.0,59,-99.99,,,0.00,weatherlink.com 1.10,2013-05-09 17:33:00,
2013-05-09 13:48:00,63.9,50.0,29.98,South,188,0.0,-999.0,62,-99.99,,,0.00,weatherlink.com 1.10,2013-05-09 17:48:00,
2013-05-09 14:03:00,66.3,48.0,29.97,SSW,200,7.0,-999.0,53,-99.99,,,0.00,weatherlink.com 1.10,2013-05-09 18:03:00,
2013-05-09 14:48:00,64.2,49.0,29.98,SW,221,2.0,-999.0,58,-99.99,,,0.00,weatherlink.com 1.10,2013-05-09 18:48:00,
2013-05-09 15:03:00,63.4,46.0,29.98,SW,234,2.0,-999.0,53,-99.99,,,0.00,weatherlink.com 1.10,2013-05-09 19:03:00,
2013-05-09 15:18:00,65.2,48.0,29.96,SSW,199,6.0,-999.0,55,-99.99,,,0.00,weatherlink.com 1.10,2013-05-09 19:18:00,
2013-05-09 15:33:00,63.2,47.0,29.97,WSW,242,2.0,-999.0,56,-99.99,,,0.00,weatherlink.com 1.10,2013-05-09 19:33:00,
2013-05-09 15:48:00,65.6,49.0,29.97,SSW,209,7.0,-999.0,56,-99.99,,,0.00,weatherlink.com 1.10,2013-05-09 19:48:00,
2013-05-09 16:03:00,66.0,47.0,29.95,SSW,205,4.0,-999.0,50,-99.99,,,0.00,weatherlink.com 1.10,2013-05-09 20:03:00,
2013-05-09 16:18:00,67.4,49.0,29.94,South,181,0.0,-999.0,52,-99.99,,,0.00,weatherlink.com 1.10,2013-05-09 20:18:00,
2013-05-09 16:33:00,66.0,48.0,29.94,SSW,201,4.0,-999.0,53,-99.99,,,0.00,weatherlink.com 1.10,2013-05-09 20:33:00,
2013-05-09 16:48:00,64.3,50.0,29.95,NE,37,2.0,-999.0,60,-99.99,,,0.00,weatherlink.com 1.10,2013-05-09 20:48:00,
2013-05-09 17:03:00,64.3,48.0,29.96,SE,142,0.0,-999.0,56,-99.99,,,0.00,weatherlink.com 1.10,2013-05-09 21:03:00,
2013-05-09 17:18:00,63.5,49.0,29.95,ENE,70,2.0,-999.0,60,-99.99,,,0.00,weatherlink.com 1.10,2013-05-09 21:18:00,
2013-05-09 17:33:00,62.6,46.0,29.96,SSW,213,4.0,-999.0,54,-99.99,,,0.00,weatherlink.com 1.10,2013-05-09 21:33:00,
2013-05-09 17:48:00,62.7,45.0,29.96,ESE,111,0.0,-999.0,52,-99.99,,,0.00,weatherlink.com 1.10,2013-05-09 21:48:00,
2013-05-09 18:03:00,63.7,45.0,29.96,ENE,78,0.0,-999.0,51,-99.99,,,0.00,weatherlink.com 1.10,2013-05-09 22:03:00,
2013-05-09 18:18:00,64.7,45.0,29.95,NNW,337,3.0,-999.0,50,-99.99,,,0.00,weatherlink.com 1.10,2013-05-09 22:18:00,
2013-05-09 18:33:00,62.9,45.0,29.96,SW,234,7.0,-999.0,53,-99.99,,,0.00,weatherlink.com 1.10,2013-05-09 22:33:00,
2013-05-09 18:48:00,62.6,45.0,29.95,SW,233,2.0,-999.0,52,-99.99,,,0.00,weatherlink.com 1.10,2013-05-09 22:48:00,
2013-05-09 19:03:00,62.4,45.0,29.95,WNW,283,0.0,-999.0,53,-99.99,,,0.00,weatherlink.com 1.10,2013-05-09 23:03:00,
2013-05-09 19:18:00,61.8,47.0,29.94,SW,217,4.0,-999.0,58,-99.99,,,0.00,weatherlink.com 1.10,2013-05-09 23:18:00,
2013-05-09 19:33:00,61.2,45.0,29.95,West,278,0.0,-999.0,56,-99.99,,,0.00,weatherlink.com 1.10,2013-05-09 23:33:00,
2013-05-09 19:48:00,60.5,46.0,29.95,WSW,241,2.0,-999.0,59,-99.99,,,0.00,weatherlink.com 1.10,2013-05-09 23:48:00,
2013-05-09 20:03:00,59.3,46.0,29.95,WSW,239,3.0,-999.0,61,-99.99,,,0.00,weatherlink.com 1.10,2013-05-10 00:03:00,
2013-05-09 20:18:00,58.7,45.0,29.94,WSW,239,0.0,-999.0,61,-99.99,,,0.00,weatherlink.com 1.10,2013-05-10 00:18:00,
2013-05-09 20:33:00,58.3,45.0,29.95,WNW,283,1.0,-999.0,61,-99.99,,,0.00,weatherlink.com 1.10,2013-05-10 00:33:00,
2013-05-09 20:48:00,58.1,45.0,29.96,WNW,283,2.0,-999.0,61,-99.99,,,0.00,weatherlink.com 1.10,2013-05-10 00:48:00,
2013-05-09 21:03:00,58.3,45.0,29.97,WNW,282,3.0,-999.0,61,-99.99,,,0.00,weatherlink.com 1.10,2013-05-10 01:03:00,
2013-05-09 21:18:00,58.1,45.0,29.96,West,272,1.0,-999.0,62,-99.99,,,0.00,weatherlink.com 1.10,2013-05-10 01:18:00,
2013-05-09 21:33:00,59.2,45.0,29.97,WNW,288,2.0,-999.0,60,-99.99,,,0.00,weatherlink.com 1.10,2013-05-10 01:33:00,
2013-05-09 21:48:00,58.4,45.0,29.97,WNW,300,0.0,-999.0,62,-99.99,,,0.00,weatherlink.com 1.10,2013-05-10 01:48:00,
2013-05-09 22:03:00,57.5,45.0,29.98,WNW,300,0.0,-999.0,64,-99.99,,,0.00,weatherlink.com 1.10,2013-05-10 02:03:00,
2013-05-09 22:18:00,56.7,45.0,29.98,WNW,300,0.0,-999.0,65,-99.99,,,0.00,weatherlink.com 1.10,2013-05-10 02:18:00,
2013-05-09 22:33:00,56.6,46.0,29.97,WNW,300,1.0,-999.0,67,-99.99,,,0.00,weatherlink.com 1.10,2013-05-10 02:33:00,
2013-05-09 22:48:00,55.7,46.0,29.96,WNW,300,1.0,-999.0,69,-99.99,,,0.00,weatherlink.com 1.10,2013-05-10 02:48:00,
2013-05-09 23:03:00,55.3,46.0,29.96,WNW,300,0.0,-999.0,71,-99.99,,,0.00,weatherlink.com 1.10,2013-05-10 03:03:00,
2013-05-09 23:18:00,55.7,46.0,29.96,WNW,300,1.0,-999.0,71,-99.99,,,0.00,weatherlink.com 1.10,2013-05-10 03:18:00,
2013-05-09 23:33:00,56.5,46.0,29.97,WNW,288,0.0,-999.0,69,-99.99,,,0.00,weatherlink.com 1.10,2013-05-10 03:33:00,
2013-05-09 23:48:00,55.4,46.0,29.97,WNW,283,2.0,-999.0,72,-99.99,,,0.00,weatherlink.com 1.10,2013-05-10 03:48:00,